Tiempo atmosférico en la estación meteorológica de Telde, Centro Forestal Doramas, Las Palmas (344 m.)



Fecha
DESCASC
Temp. máxima en grados centígrados (hora)
DESCASC
Temp. mínima en grados centígrados (hora)
DESCASC
Temp. media en grados centígrados
DESCASC
Racha de viento máxima en m/sg (hora)
DESCASC
Velocidad máxima media en intervalos de 10 minutos(hora)
DESCASC
Precipitaciones diarias en mm
DESCASC
Precipitaciones de 00:00 a 06:00 en mm
DESCASC
Precipitaciones de 06:00 a 12:00 en mm
DESCASC
Precipitaciones de 12:00 a 18:00 en mm
DESCASC
Precipitaciones de 18:00 a 24:00 en mm
DESCASC
27-10-2020 22 (13:40) 18.1 (02:40) 20.1 10 (14:00) 5.83 (14:00) 0 0 0 0 0
26-10-2020 22.9 (13:50) 17.3 (06:20) 20.1 10.83 (14:50) 5 (18:20) 0 0 0 0 0
25-10-2020 22.3 (14:10) 17.3 (06:10) 19.8 9.72 (13:00) 6.39 (12:00) 0 0 0 0 0
24-10-2020 21.4 (15:30) 15.8 (00:00) 18.6 8.33 (14:40) 5.56 (06:10) 0 0 0 0 0
23-10-2020 21 (14:00) 15.5 (00:00) 18.3 8.61 (15:10) 4.17 (09:10) 0 0 0 0 0
22-10-2020 19.9 (12:20) 16.5 (00:00) 18.2 8.89 (12:00) 5 (12:50) 2.6 1 1.6 0 0
21-10-2020 22.2 (11:30) 18 (00:00) 20.1 5.56 (11:50) 3.06 (12:00) 4 0 0 2.8 1.2
20-10-2020 31.6 (14:50) 20.1 (00:00) 25.9 15.28 (14:10) 7.22 (12:50) 0 0 0 0 0
19-10-2020 25.4 (15:00) 16.3 (00:00) 20.8 6.39 (13:00) 3.61 (13:50) 0 0 0 0 0
18-10-2020 24.1 (15:00) 15.9 (00:00) 20 7.5 (12:50) 4.17 (13:10) 0 0 0 0 0
17-10-2020 20.9 (11:00) 17.3 (00:00) 19.1 6.11 (11:50) 3.61 (11:10) 0 0 0 0 0
16-10-2020 22.6 (14:00) 18.7 (00:00) 20.7 7.5 (15:50) 4.17 (14:10) 0 0 0 0 0
15-10-2020 23.4 (14:00) 16.8 (00:00) 20.1 7.22 (15:10) 3.89 (15:40) 0 0 0 0 0
14-10-2020 24.5 (11:50) 16.9 (00:00) 20.7 6.11 (19:20) 4.17 (19:20) 0 0 0 0 0
13-10-2020 31.1 (13:10) 20.2 (00:00) 25.7 7.22 (12:40) 4.17 (12:10) 0 0 0 0 0
12-10-2020 33.1 (14:20) 18.2 (00:00) 25.6 5.83 (07:50) 3.89 (09:00) 0 0 0 0 0
11-10-2020 26.2 (13:30) 19.4 (00:00) 22.8 8.89 (18:40) 5.83 (18:50) 0 0 0 0 0
10-10-2020 24.9 (14:50) 18.9 (00:00) 21.9 10.28 (19:00) 6.11 (18:00) 0 0 0 0 0
09-10-2020 25.5 (15:50) 20 (00:00) 22.8 11.39 (03:00) 7.5 (03:00) 0 0 0 0 0
08-10-2020 27.6 (14:50) 18.2 (00:00) 22.9 6.11 (14:40) 3.61 (11:50) 0 0 0 0 0
07-10-2020 25 (15:00) 17.1 (00:00) 21.1 5.56 (12:10) 3.61 (12:10) 0 0 0 0 0
06-10-2020 21 (16:00) 18.3 (00:00) 19.6 6.67 (14:00) 3.61 (18:40) 0.6 0.2 0.2 0.2 0
05-10-2020 23.1 (13:10) 18.5 (00:00) 20.8 8.61 (14:20) 4.44 (16:40) 0 0 0 0 0
04-10-2020 22.7 (16:20) 18.6 (00:00) 20.7 10.83 (18:20) 6.39 (04:20) 6.8 0.2 5.8 0.8 0
03-10-2020 23.7 (14:40) 18.2 (00:00) 21 11.67 (12:00) 6.39 (02:40) 1.8 0 0.8 0.4 0.6
02-10-2020 24.7 (15:10) 17.6 (00:00) 21.2 13.61 (19:50) 7.5 (17:30) 0.4 0 0 0 0.4
01-10-2020 24.6 (14:10) 19.3 (00:00) 21.9 11.67 (15:10) 7.22 (14:40) 0 0 0 0 0
30-09-2020 24.3 (15:10) 18.7 (00:00) 21.5 10.83 (14:50) 6.11 (19:40) 0 0 0 0 0

Gráficas

Temp. máximas Temp. mínimas Temp. medias Precipitaciones Rachas de viento máximas Velocidades máximas media en intervalos de 10 minutos

Datos horarios

Fecha y hora oficial Temperatura (ºC) Velocidad del viento (km/h) Dirección del viento Racha (km/h) Dirección de racha Precipitación (mm) Presión (hPa) Tendencia (hPa) Humedad (%)
2020-10-29 23:00:00 -- -- -- -- -- -- -- -- --
2020-10-29 22:00:00 -- -- -- -- -- -- -- -- --
2020-10-29 21:00:00 -- -- -- -- -- -- -- -- --
2020-10-29 20:00:00 18.5 17 Noroeste 32 Noroeste 0 -- -- 81
2020-10-29 19:00:00 18.8 13 Noroeste 29 Noroeste 0 -- -- 80
2020-10-29 18:00:00 19.3 18 Noroeste 30 Noroeste 0 -- -- 76
2020-10-29 17:00:00 21.2 14 Norte 34 Noroeste 0 -- -- 68
2020-10-29 16:00:00 21.3 17 Noroeste 38 Noroeste 0 -- -- 64
2020-10-29 15:00:00 20.7 20 Norte 32 Noroeste 0 -- -- 67
2020-10-29 14:00:00 22.4 17 Noroeste 35 Noroeste 0 -- -- 61
2020-10-29 13:00:00 22.7 18 Noroeste 30 Noroeste 0 -- -- 58
2020-10-29 12:00:00 22 18 Norte 33 Noroeste 0 -- -- 59
2020-10-29 11:00:00 20.7 21 Norte 29 Noroeste 0 -- -- 67
2020-10-29 10:00:00 19.8 15 Noroeste 30 Noroeste 0 -- -- 70
2020-10-29 09:00:00 19.1 12 Noroeste 24 Noroeste 0 -- -- 71
2020-10-29 08:00:00 18 14 Noroeste 26 Noroeste 0 -- -- 78
2020-10-29 07:00:00 17.6 10 Noroeste 22 Oeste 0 -- -- 81
2020-10-29 06:00:00 17.7 9 Noroeste 23 Oeste 0 -- -- 78
2020-10-29 05:00:00 17.8 11 Noroeste 20 Noroeste 0 -- -- 78
2020-10-29 04:00:00 17.5 7 Noroeste 24 Noroeste 0 -- -- 80
2020-10-29 03:00:00 17.3 13 Noroeste 23 Noroeste 0 -- -- 80
2020-10-29 02:00:00 17.8 12 Noroeste 24 Oeste 0 -- -- 75
2020-10-29 01:00:00 17.2 19 Oeste 27 Oeste 0 -- -- 78
2020-10-29 00:00:00 18.1 16 Noroeste 26 Norte 0 -- -- 76
2020-10-28 23:00:00 17.9 12 Noroeste 28 Noroeste 0 -- -- 76
2020-10-28 22:00:00 17.6 14 Oeste 23 Noroeste 0 -- -- 79
2020-10-28 21:00:00 17.6 11 Noroeste 30 Noroeste 0 -- -- 78
2020-10-28 20:00:00 18.3 11 Noroeste 29 Noroeste 0 -- -- 72
2020-10-28 19:00:00 18.4 17 Noroeste 32 Noroeste 0 -- -- 68
2020-10-28 18:00:00 18.7 12 Noroeste 29 Norte 0 -- -- 67
2020-10-28 17:00:00 19.1 14 Noroeste 26 Norte 0 -- -- 69
2020-10-28 16:00:00 19.7 16 Norte 30 Noroeste 0 -- -- 67
2020-10-28 15:00:00 20.2 17 Norte 29 Norte 0 -- -- 66
2020-10-28 14:00:00 20.9 13 Noroeste 30 Norte 0 -- -- 60
2020-10-28 13:00:00 20 17 Noroeste 30 Noroeste 0 -- -- 64
2020-10-28 12:00:00 19 15 Noroeste 28 Norte 0 -- -- 69
2020-10-28 11:00:00 18.9 14 Noroeste 30 Noroeste 0 -- -- 70
2020-10-28 10:00:00 18.2 14 Noroeste 25 Noroeste 0 -- -- 74
2020-10-28 09:00:00 17.3 11 Noroeste 23 Noroeste 0 -- -- 79
2020-10-28 08:00:00 18.1 13 Noroeste 29 Oeste 0 -- -- 70
2020-10-28 07:00:00 17.8 9 Noroeste 26 Oeste 0 -- -- 66
2020-10-28 06:00:00 17.7 9 Noroeste 27 Oeste 0 -- -- 70
2020-10-28 05:00:00 17.6 13 Oeste 28 Oeste 0 -- -- 71
2020-10-28 04:00:00 17.7 10 Noroeste 21 Noroeste 0 -- -- 69
2020-10-28 03:00:00 17.8 8 Noroeste 21 Noroeste 0 -- -- 72
2020-10-28 02:00:00 17.8 9 Noroeste 26 Noroeste 0 -- -- 73
2020-10-28 01:00:00 18.2 10 Oeste 19 Oeste 0 -- -- 70
2020-10-28 00:00:00 18.2 9 Noroeste 21 Noroeste 0 -- -- 72
2020-10-27 23:00:00 18.3 8 Noroeste 24 Noroeste 0 -- -- 71
2020-10-27 22:00:00 18.4 6 Noroeste 23 Noroeste 0 -- -- 75
2020-10-27 21:00:00 18.2 9 Noroeste 21 Oeste 0 -- -- 78
2020-10-27 20:00:00 18.2 11 Noroeste 23 Oeste 0 -- -- 79
2020-10-27 19:00:00 18.5 11 Norte 24 Norte 0 -- -- 76
2020-10-27 18:00:00 19.1 10 Norte 29 Noroeste 0 -- -- 75
2020-10-27 17:00:00 19.7 14 Noroeste 31 Nordeste 0 -- -- 70
2020-10-27 16:00:00 19.6 16 Nordeste 30 Nordeste 0 -- -- 75
2020-10-27 15:00:00 20.8 15 Nordeste 28 Norte 0 -- -- 72
2020-10-27 14:00:00 21.7 21 Norte 36 Noroeste 0 -- -- 60
2020-10-27 13:00:00 21.2 15 Norte 35 Oeste 0 -- -- 63
2020-10-27 12:00:00 19.7 12 Noroeste 31 Noroeste 0 -- -- 73
2020-10-27 11:00:00 18.8 10 Norte 24 Norte 0 -- -- 84
2020-10-27 10:00:00 19.8 17 Norte 29 Norte 0 -- -- 78
2020-10-27 09:00:00 19.3 14 Noroeste 24 Noroeste 0 -- -- 73
2020-10-27 08:00:00 19.3 13 Oeste 28 Oeste 0 -- -- 66
2020-10-27 07:00:00 18.5 15 Oeste 24 Oeste 0 -- -- 68
2020-10-27 06:00:00 18.4 12 Noroeste 25 Noroeste 0 -- -- 77
2020-10-27 05:00:00 18.6 11 Norte 20 Noroeste 0 -- -- 76
2020-10-27 04:00:00 18.4 11 Oeste 18 Oeste 0 -- -- 77
2020-10-27 03:00:00 18.2 9 Noroeste 20 Noroeste 0 -- -- 81
2020-10-27 02:00:00 18.5 14 Noroeste 24 Noroeste 0 -- -- 79
2020-10-27 01:00:00 18.9 11 Oeste 21 Noroeste 0 -- -- 68
2020-10-27 00:00:00 18.7 9 Noroeste 21 Oeste 0 -- -- 74
2020-10-26 23:00:00 18.8 8 Noroeste 22 Oeste 0 -- -- 73
2020-10-26 22:00:00 18.6 14 Oeste 27 Oeste 0 -- -- 74
2020-10-26 21:00:00 18.3 12 Noroeste 24 Noroeste 0 -- -- 79
2020-10-26 20:00:00 18.4 9 Noroeste 24 Noroeste 0 -- -- 74
2020-10-26 19:00:00 18.8 12 Noroeste 33 Oeste 0 -- -- 73
2020-10-26 18:00:00 19.1 13 Noroeste 26 Noroeste 0 -- -- 73
2020-10-26 17:00:00 20.3 16 Norte 31 Norte 0 -- -- 68
2020-10-26 16:00:00 21.4 17 Norte 37 Norte 0 -- -- 64
2020-10-26 15:00:00 21.5 14 Nordeste 39 Norte 0 -- -- 64
2020-10-26 14:00:00 22.6 10 Norte 28 Nordeste 0 -- -- 59
2020-10-26 13:00:00 21.8 14 Norte 29 Noroeste 0 -- -- 63
2020-10-26 12:00:00 21.5 14 Norte 32 Norte 0 -- -- 61
2020-10-26 11:00:00 19.9 15 Noroeste 30 Noroeste 0 -- -- 68
2020-10-26 10:00:00 19.4 14 Noroeste 28 Noroeste 0 -- -- 69
2020-10-26 09:00:00 18.5 15 Noroeste 28 Noroeste 0 -- -- 72
2020-10-26 08:00:00 17.8 13 Noroeste 25 Noroeste 0 -- -- 76
2020-10-26 07:00:00 17.6 15 Noroeste 27 Noroeste 0 -- -- 78
2020-10-26 06:00:00 17.5 14 Noroeste 26 Noroeste 0 -- -- 78
2020-10-26 05:00:00 17.6 12 Noroeste 27 Noroeste 0 -- -- 78
2020-10-26 04:00:00 18 12 Noroeste 28 Oeste 0 -- -- 75
2020-10-26 03:00:00 17.9 14 Oeste 27 Noroeste 0 -- -- 75
2020-10-26 02:00:00 18 12 Noroeste 23 Noroeste 0 -- -- 75
2020-10-26 01:00:00 17.8 8 Noroeste 22 Oeste 0 -- -- 75
2020-10-26 00:00:00 18.1 11 Noroeste 24 Noroeste 0 -- -- 76
2020-10-25 23:00:00 18.1 13 Noroeste 25 Noroeste 0 -- -- 76
2020-10-25 22:00:00 18.1 11 Noroeste 25 Noroeste 0 -- -- 76
2020-10-25 21:00:00 18.3 14 Noroeste 27 Noroeste 0 -- -- 76
2020-10-25 20:00:00 18.2 10 Noroeste 22 Noroeste 0 -- -- 76
2020-10-25 19:00:00 18.4 14 Noroeste 26 Noroeste 0 -- -- 75
2020-10-25 18:00:00 18.6 14 Noroeste 30 Noroeste 0 -- -- 73
2020-10-25 17:00:00 19.3 18 Noroeste 31 Noroeste 0 -- -- 70
2020-10-25 16:00:00 20.4 17 Norte 33 Norte 0 -- -- 67
2020-10-25 15:00:00 21.7 14 Norte 30 Noroeste 0 -- -- 61
2020-10-25 14:00:00 22.2 20 Norte 33 Norte 0 -- -- 60
2020-10-25 13:00:00 21.8 21 Norte 35 Norte 0 -- -- 63
2020-10-25 12:00:00 21.3 23 Norte 33 Norte 0 -- -- 64
2020-10-25 11:00:00 20.4 16 Norte 28 Norte 0 -- -- 64
2020-10-25 10:00:00 19.1 16 Noroeste 28 Noroeste 0 -- -- 70
2020-10-25 09:00:00 19.1 17 Noroeste 30 Norte 0 -- -- 70
2020-10-25 08:00:00 17.7 9 Noroeste 22 Noroeste 0 -- -- 75
2020-10-25 07:00:00 17.6 13 Noroeste 26 Noroeste 0 -- -- 76
2020-10-25 06:00:00 17.4 8 Oeste 23 Noroeste 0 -- -- 75
2020-10-25 05:00:00 17.5 9 Oeste 19 Noroeste 0 -- -- 76
2020-10-25 04:00:00 17.6 13 Oeste 20 Oeste 0 -- -- 75
2020-10-25 03:00:00 17.7 9 Noroeste 21 Noroeste 0 -- -- 74
2020-10-25 02:00:00 17.9 9 Noroeste 22 Noroeste 0 -- -- 74
2020-10-25 01:00:00 18.1 11 Noroeste 20 Noroeste 0 -- -- 76
2020-10-25 00:00:00 18.3 10 Noroeste 24 Noroeste 0 -- -- 76
2020-10-24 23:00:00 18.4 13 Noroeste 25 Noroeste 0 -- -- 75
2020-10-24 22:00:00 18.5 10 Norte 22 Noroeste 0 -- -- 74
2020-10-24 21:00:00 18.6 9 Noroeste 20 Noroeste 0 -- -- 75
2020-10-24 20:00:00 18.4 9 Norte 21 Norte 0 -- -- 74
2020-10-24 19:00:00 19 9 Norte 21 Nordeste 0 -- -- 71
2020-10-24 18:00:00 19.3 13 Nordeste 26 Norte 0 -- -- 69
2020-10-24 17:00:00 20 14 Nordeste 28 Nordeste 0 -- -- 68
2020-10-24 16:00:00 21.1 12 Nordeste 29 Nordeste 0 -- -- 64
2020-10-24 15:00:00 21.2 14 Nordeste 30 Nordeste 0 -- -- 58
2020-10-24 14:00:00 20.5 13 Nordeste 29 Nordeste 0 -- -- 65
2020-10-24 13:00:00 20.7 15 Nordeste 27 Nordeste 0 -- -- 58
2020-10-24 12:00:00 20.2 12 Norte 25 Noroeste 0 -- -- 64
2020-10-24 11:00:00 18.8 6 Noroeste 24 Noroeste 0 -- -- 71
2020-10-24 10:00:00 17.9 8 Noroeste 23 Oeste 0 -- -- 68
2020-10-24 09:00:00 17.4 9 Oeste 23 Oeste 0 -- -- 70
2020-10-24 08:00:00 17.2 15 Oeste 23 Noroeste 0 -- -- 71
2020-10-24 07:00:00 17.4 10 Noroeste 27 Oeste 0 -- -- 71
2020-10-24 06:00:00 16.2 16 Oeste 23 Oeste 0 -- -- 66
2020-10-24 05:00:00 15.8 16 Oeste 22 Oeste 0 -- -- 72
2020-10-24 04:00:00 16.6 13 Oeste 20 Oeste 0 -- -- 77
2020-10-24 03:00:00 16.7 10 Oeste 16 Oeste 0 -- -- 77
2020-10-24 02:00:00 17 8 Oeste 17 Oeste 0 -- -- 76
2020-10-24 01:00:00 17.1 9 Oeste 15 Oeste 0 -- -- 73
2020-10-24 00:00:00 17.7 5 Oeste 13 Norte 0 -- -- 74
2020-10-23 23:00:00 17.9 5 Norte 16 Norte 0 -- -- 76
2020-10-23 22:00:00 17.8 8 Noroeste 20 Noroeste 0 -- -- 74
2020-10-23 21:00:00 17.9 9 Noroeste 20 Oeste 0 -- -- 72
2020-10-23 20:00:00 17.9 9 Noroeste 23 Norte 0 -- -- 70
2020-10-23 19:00:00 18.6 9 Norte 21 Nordeste 0 -- -- 71
2020-10-23 18:00:00 19.7 9 Norte 23 Norte 0 -- -- 65
2020-10-23 17:00:00 20.3 13 Nordeste 24 Este 0 -- -- 64
2020-10-23 16:00:00 19.8 12 Nordeste 31 Este 0 -- -- 67
2020-10-23 15:00:00 20.3 12 Nordeste 26 Este 0 -- -- 66
2020-10-23 14:00:00 21 12 Nordeste 29 Este 0 -- -- 57
2020-10-23 13:00:00 20.2 13 Nordeste 26 Nordeste 0 -- -- 60
2020-10-23 12:00:00 19.5 13 Nordeste 22 Nordeste 0 -- -- 67
2020-10-23 11:00:00 19.1 6 Noroeste 19 Noroeste 0 -- -- 71
2020-10-23 10:00:00 18.2 9 Oeste 19 Oeste 0 -- -- 69
2020-10-23 09:00:00 16.1 14 Oeste 19 Oeste 0 -- -- 68
2020-10-23 08:00:00 15.7 11 Oeste 17 Oeste 0 -- -- 77
2020-10-23 07:00:00 16.1 10 Oeste 17 Oeste 0 -- -- 78
2020-10-23 06:00:00 16.2 11 Oeste 18 Oeste 0 -- -- 77
2020-10-23 05:00:00 16 12 Oeste 17 Oeste 0 -- -- 77
2020-10-23 04:00:00 16.7 13 Oeste 15 Oeste 0 -- -- 76
2020-10-23 03:00:00 16.6 10 Oeste 15 Oeste 0 -- -- 75
2020-10-23 02:00:00 16.5 9 Oeste 13 Oeste 0 -- -- 78
2020-10-23 01:00:00 16.8 9 Oeste 14 Oeste 0 -- -- 78
2020-10-23 00:00:00 17.3 7 Noroeste 17 Oeste 0 -- -- 77
2020-10-22 23:00:00 16.5 9 Oeste 17 Oeste 0 -- -- 81
2020-10-22 22:00:00 16.8 14 Oeste 26 Oeste 0 -- -- 79
2020-10-22 21:00:00 17.7 7 Noroeste 20 Noroeste 0 -- -- 73
2020-10-22 20:00:00 18.2 15 Noroeste 25 Noroeste 0 -- -- 73
2020-10-22 19:00:00 18.6 9 Noroeste 27 Noroeste 0 -- -- 71
2020-10-22 18:00:00 19 12 Norte 27 Noroeste 0 -- -- 69
2020-10-22 17:00:00 19.2 11 Noroeste 28 Norte 0 -- -- 68
2020-10-22 16:00:00 19.5 12 Norte 29 Norte 0 -- -- 70
2020-10-22 15:00:00 19.5 15 Noroeste 29 Noroeste 0 -- -- 69
2020-10-22 14:00:00 19.7 16 Norte 30 Norte 0 -- -- 68
2020-10-22 13:00:00 19.6 14 Noroeste 30 Noroeste 0 -- -- 72
2020-10-22 12:00:00 19 13 Noroeste 32 Noroeste 0.2 -- -- 78
2020-10-22 11:00:00 17.6 10 Noroeste 22 Noroeste 0.4 -- -- 85
2020-10-22 10:00:00 17.1 8 Noroeste 19 Oeste 0.6 -- -- 88
2020-10-22 09:00:00 16.5 10 Oeste 27 Oeste 0.4 -- -- 88
2020-10-22 08:00:00 16.9 11 Noroeste 19 Oeste 0 -- -- 87
2020-10-22 07:00:00 17.3 15 Noroeste 24 Noroeste 0 -- -- 83
2020-10-22 06:00:00 17 9 Noroeste 22 Noroeste 0 -- -- 83
2020-10-22 05:00:00 16.9 10 Oeste 19 Oeste 0 -- -- 82
2020-10-22 04:00:00 17.1 10 Oeste 16 Sudoeste 0 -- -- 83
2020-10-22 03:00:00 16.8 6 Sudoeste 13 Noroeste 0.2 -- -- 89
2020-10-22 02:00:00 16.8 4 Noroeste 19 Norte 0.8 -- -- 89
2020-10-22 01:00:00 17.7 12 Noroeste 19 Noroeste 0 -- -- 88
2020-10-22 00:00:00 18.1 2 Sudeste 9 Oeste 0.2 -- -- 90
2020-10-21 23:00:00 18.2 0 Calma 4 Sur 0 -- -- 90
2020-10-21 22:00:00 18.2 2 Este 13 Este 0 -- -- 91
2020-10-21 21:00:00 18.6 6 Este 12 Este 0.8 -- -- 90
2020-10-21 20:00:00 18.6 3 Sur 8 Sudoeste 0 -- -- 88
2020-10-21 19:00:00 18.4 5 Oeste 9 Oeste 0.2 -- -- 89
2020-10-21 18:00:00 18.6 3 Sudeste 13 Norte 0.4 -- -- 89
2020-10-21 17:00:00 19.6 5 Norte 11 Nordeste 0.2 -- -- 84
2020-10-21 16:00:00 19.7 2 Nordeste 11 Sudeste 0.2 -- -- 80
2020-10-21 15:00:00 19.8 4 Sudeste 16 Sudeste 0.4 -- -- 85
2020-10-21 14:00:00 20.7 10 Este 19 Este 0.2 -- -- 81
2020-10-21 13:00:00 20 9 Nordeste 18 Nordeste 1.4 -- -- 82
2020-10-21 12:00:00 21.3 11 Este 20 Este 0 -- -- 74
2020-10-21 11:00:00 20.8 6 Este 13 Nordeste 0 -- -- 77
2020-10-21 10:00:00 20.6 2 Norte 9 Oeste 0 -- -- 76
2020-10-21 09:00:00 19.3 4 Oeste 8 Oeste 0 -- -- 79
2020-10-21 08:00:00 18.8 2 Sudoeste 5 Sudoeste 0 -- -- 80
2020-10-21 07:00:00 19.4 0 Calma 6 Noroeste 0 -- -- 78
2020-10-21 06:00:00 19.4 4 Noroeste 13 Noroeste 0 -- -- 78
2020-10-21 05:00:00 19.8 7 Noroeste 13 Noroeste 0 -- -- 77
2020-10-21 04:00:00 20 4 Este 10 Este 0 -- -- 78
2020-10-21 03:00:00 20.1 3 Norte 14 Noroeste 0 -- -- 78
2020-10-21 02:00:00 20.5 8 Norte 14 Noroeste 0 -- -- 79
2020-10-21 01:00:00 20.9 6 Norte 15 Norte 0 -- -- 77
2020-10-21 00:00:00 21 10 Norte 21 Norte 0 -- -- 77
2020-10-20 23:00:00 21 13 Norte 24 Noroeste 0 -- -- 77
2020-10-20 22:00:00 21.5 11 Norte 17 Norte 0 -- -- 80
2020-10-20 21:00:00 22 6 Sudeste 14 Este 0 -- -- 81
2020-10-20 20:00:00 22.4 10 Sudeste 18 Este 0 -- -- 79
2020-10-20 19:00:00 24.5 7 Sudeste 20 Sudeste 0 -- -- 71
2020-10-20 18:00:00 25.5 12 Este 36 Noroeste 0 -- -- 67
2020-10-20 17:00:00 27.7 17 Noroeste 44 Noroeste 0 -- -- 54
2020-10-20 16:00:00 27.4 9 Sudeste 45 Oeste 0 -- -- 53
2020-10-20 15:00:00 31.5 13 Oeste 55 Oeste 0 -- -- 41
2020-10-20 14:00:00 30.2 20 Oeste 46 Sudoeste 0 -- -- 39
2020-10-20 13:00:00 27.1 15 Sudoeste 52 Oeste 0 -- -- 44
2020-10-20 12:00:00 26.8 7 Nordeste 37 Sudoeste 0 -- -- 42
2020-10-20 11:00:00 27.1 19 Sudoeste 51 Oeste 0 -- -- 39
2020-10-20 10:00:00 27.9 21 Oeste 49 Oeste 0 -- -- 36
2020-10-20 09:00:00 23.7 7 Sudeste 18 Este 0 -- -- 58
2020-10-20 08:00:00 22.2 7 Sudeste 15 Este 0 -- -- 63
2020-10-20 07:00:00 21.6 6 Este 14 Oeste 0 -- -- 67
2020-10-20 06:00:00 21 4 Sudeste 13 Sudoeste 0 -- -- 72
2020-10-20 05:00:00 20.3 3 Oeste 12 Oeste 0 -- -- 72
2020-10-20 04:00:00 20.2 3 Noroeste 10 Sudoeste 0 -- -- 70
2020-10-20 03:00:00 20.5 7 Sudoeste 12 Sudoeste 0 -- -- 67
2020-10-20 02:00:00 20.5 5 Sudoeste 12 Oeste 0 -- -- 70
2020-10-20 01:00:00 20.4 6 Sudoeste 12 Sudoeste 0 -- -- 73
2020-10-20 00:00:00 20.1 4 Oeste 9 Oeste 0 -- -- 79
2020-10-19 23:00:00 20.6 0 Calma 4 Sudoeste 0 -- -- 83
2020-10-19 22:00:00 21.4 0 Calma 6 Sudeste 0 -- -- 83
2020-10-19 21:00:00 22.2 2 Este 5 Este 0 -- -- 82
2020-10-19 20:00:00 22.9 3 Este 8 Este 0 -- -- 79
2020-10-19 19:00:00 24.1 2 Nordeste 11 Este 0 -- -- 72
2020-10-19 18:00:00 25 5 Este 15 Nordeste 0 -- -- 67
2020-10-19 17:00:00 24.8 9 Nordeste 18 Este 0 -- -- 68
2020-10-19 16:00:00 25 7 Este 21 Este 0 -- -- 65
2020-10-19 15:00:00 25.4 13 Este 22 Sudeste 0 -- -- 64
2020-10-19 14:00:00 24.6 13 Este 21 Este 0 -- -- 66
2020-10-19 13:00:00 24.9 12 Este 23 Sudeste 0 -- -- 63
2020-10-19 12:00:00 24.4 9 Sudeste 16 Este 0 -- -- 63
2020-10-19 11:00:00 23.6 8 Este 15 Este 0 -- -- 64
2020-10-19 10:00:00 22.6 4 Noroeste 10 Norte 0 -- -- 65
2020-10-19 09:00:00 18.3 5 Oeste 11 Oeste 0 -- -- 76
2020-10-19 08:00:00 16.5 4 Oeste 13 Oeste 0 -- -- 81
2020-10-19 07:00:00 16.5 4 Sudoeste 10 Oeste 0 -- -- 79
2020-10-19 06:00:00 16.7 7 Oeste 9 Sudoeste 0 -- -- 78
2020-10-19 05:00:00 16.5 5 Sudoeste 13 Oeste 0 -- -- 78
2020-10-19 04:00:00 16.8 6 Sudoeste 13 Oeste 0 -- -- 77
2020-10-19 03:00:00 17.2 5 Sudoeste 10 Oeste 0 -- -- 75
2020-10-19 02:00:00 17.4 5 Sudoeste 11 Sudoeste 0 -- -- 76
2020-10-19 01:00:00 17.8 6 Oeste 12 Sudoeste 0 -- -- 77
2020-10-19 00:00:00 18.1 6 Oeste 10 Oeste 0 -- -- 79
2020-10-18 23:00:00 18 3 Oeste 8 Oeste 0 -- -- 82
2020-10-18 22:00:00 18.9 0 Calma 8 Oeste 0 -- -- 78
2020-10-18 21:00:00 19.5 5 Oeste 9 Noroeste 0 -- -- 79
2020-10-18 20:00:00 20.1 0 Calma 12 Sudoeste 0 -- -- 77
2020-10-18 19:00:00 21.3 9 Sur 19 Sudeste 0 -- -- 73
2020-10-18 18:00:00 22.5 8 Sudeste 20 Sudeste 0 -- -- 68
2020-10-18 17:00:00 23.1 9 Sudeste 22 Sudeste 0 -- -- 65
2020-10-18 16:00:00 24 9 Sur 22 Sudeste 0 -- -- 61
2020-10-18 15:00:00 24.1 9 Sudeste 25 Sudeste 0 -- -- 59
2020-10-18 14:00:00 21.3 10 Sudeste 26 Sur 0 -- -- 72
2020-10-18 13:00:00 20.9 12 Sur 27 Sur 0 -- -- 74
2020-10-18 12:00:00 21.5 12 Sur 24 Este 0 -- -- 72
2020-10-18 11:00:00 20.9 10 Sudeste 19 Sudeste 0 -- -- 72
2020-10-18 10:00:00 18.9 0 Calma 9 Oeste 0 -- -- 70
2020-10-18 09:00:00 16.8 8 Oeste 12 Oeste 0 -- -- 76
2020-10-18 08:00:00 16 8 Oeste 12 Oeste 0 -- -- 79
2020-10-18 07:00:00 16.1 5 Oeste 12 Oeste 0 -- -- 80
2020-10-18 06:00:00 16.2 6 Oeste 12 Oeste 0 -- -- 81
2020-10-18 05:00:00 16.1 8 Oeste 12 Oeste 0 -- -- 81
2020-10-18 04:00:00 16.1 6 Oeste 10 Oeste 0 -- -- 82
2020-10-18 03:00:00 16.1 6 Oeste 9 Sudoeste 0 -- -- 83
2020-10-18 02:00:00 16.3 7 Oeste 10 Oeste 0 -- -- 84
2020-10-18 01:00:00 16.7 5 Sudoeste 7 Oeste 0 -- -- 85
2020-10-18 00:00:00 17.3 4 Oeste 6 Oeste 0 -- -- 84
2020-10-17 23:00:00 17.5 2 Oeste 4 Oeste 0 -- -- 83
2020-10-17 22:00:00 18.1 0 Calma 6 Nordeste 0 -- -- 81
2020-10-17 21:00:00 18.6 3 Nordeste 8 Nordeste 0 -- -- 78
2020-10-17 20:00:00 18.6 3 Oeste 12 Sudoeste 0 -- -- 75
2020-10-17 19:00:00 18.8 5 Oeste 10 Oeste 0 -- -- 77
2020-10-17 18:00:00 18.7 6 Oeste 12 Oeste 0 -- -- 80
2020-10-17 17:00:00 18.4 8 Oeste 14 Oeste 0 -- -- 83
2020-10-17 16:00:00 19.1 3 Norte 14 Nordeste 0 -- -- 75
2020-10-17 15:00:00 19.4 7 Este 14 Este 0 -- -- 78
2020-10-17 14:00:00 19.6 8 Nordeste 19 Nordeste 0 -- -- 75
2020-10-17 13:00:00 19.9 10 Este 19 Este 0 -- -- 75
2020-10-17 12:00:00 20.2 12 Este 22 Este 0 -- -- 77
2020-10-17 11:00:00 20.9 11 Este 19 Este 0 -- -- 71
2020-10-17 10:00:00 19.5 8 Nordeste 13 Nordeste 0 -- -- 72
2020-10-17 09:00:00 18 3 Norte 10 Oeste 0 -- -- 77
2020-10-17 08:00:00 17.6 5 Noroeste 10 Norte 0 -- -- 83
2020-10-17 07:00:00 18.1 6 Noroeste 14 Norte 0 -- -- 83
2020-10-17 06:00:00 18.2 5 Norte 11 Norte 0 -- -- 83
2020-10-17 05:00:00 18.3 5 Noroeste 14 Nordeste 0 -- -- 83
2020-10-17 04:00:00 18.4 8 Norte 14 Nordeste 0 -- -- 83
2020-10-17 03:00:00 18.3 7 Norte 15 Norte 0 -- -- 82
2020-10-17 02:00:00 18.2 6 Norte 13 Norte 0 -- -- 85
2020-10-17 01:00:00 18.7 4 Norte 13 Nordeste 0 -- -- 82
2020-10-17 00:00:00 18.9 5 Norte 13 Norte 0 -- -- 81
2020-10-16 23:00:00 19.1 5 Norte 18 Nordeste 0 -- -- 79
2020-10-16 22:00:00 19.2 8 Nordeste 18 Norte 0 -- -- 80
2020-10-16 21:00:00 19.2 10 Nordeste 21 Norte 0 -- -- 79
2020-10-16 20:00:00 19.3 11 Nordeste 18 Norte 0 -- -- 80
2020-10-16 19:00:00 20 9 Nordeste 21 Norte 0 -- -- 76
2020-10-16 18:00:00 20.5 10 Nordeste 24 Nordeste 0 -- -- 73
2020-10-16 17:00:00 20.8 12 Nordeste 23 Nordeste 0 -- -- 74
2020-10-16 16:00:00 21.7 11 Nordeste 27 Este 0 -- -- 68
2020-10-16 15:00:00 22.3 12 Nordeste 27 Nordeste 0 -- -- 66
2020-10-16 14:00:00 22.6 11 Este 23 Este 0 -- -- 66
2020-10-16 13:00:00 22.2 13 Este 24 Este 0 -- -- 68
2020-10-16 12:00:00 21.8 11 Este 21 Nordeste 0 -- -- 70
2020-10-16 11:00:00 21.2 8 Nordeste 14 Este 0 -- -- 72
2020-10-16 10:00:00 19.7 3 Nordeste 10 Norte 0 -- -- 80
2020-10-16 09:00:00 19 5 Norte 12 Norte 0 -- -- 79
2020-10-16 08:00:00 18.7 5 Noroeste 13 Norte 0 -- -- 81
2020-10-16 07:00:00 18.8 5 Norte 13 Noroeste 0 -- -- 82
2020-10-16 06:00:00 18.9 5 Norte 12 Nordeste 0 -- -- 84
2020-10-16 05:00:00 19 5 Norte 13 Nordeste 0 -- -- 85
2020-10-16 04:00:00 19.1 5 Nordeste 11 Nordeste 0 -- -- 85
2020-10-16 03:00:00 19.2 3 Nordeste 9 Norte 0 -- -- 84
2020-10-16 02:00:00 19.3 3 Nordeste 9 Nordeste 0 -- -- 84
2020-10-16 01:00:00 19.3 5 Norte 13 Norte 0 -- -- 84
2020-10-16 00:00:00 19.4 4 Norte 14 Norte 0 -- -- 84
2020-10-15 23:00:00 19.4 8 Norte 14 Norte 0 -- -- 83
2020-10-15 22:00:00 19.4 8 Norte 13 Norte 0 -- -- 81
2020-10-15 21:00:00 19 6 Noroeste 14 Noroeste 0 -- -- 84
2020-10-15 20:00:00 19.3 9 Norte 19 Nordeste 0 -- -- 82
2020-10-15 19:00:00 20.5 5 Nordeste 14 Este 0 -- -- 77
2020-10-15 18:00:00 22.2 9 Este 13 Sudeste 0 -- -- 70
2020-10-15 17:00:00 22.5 7 Este 20 Nordeste 0 -- -- 69
2020-10-15 16:00:00 22.4 13 Este 26 Este 0 -- -- 69
2020-10-15 15:00:00 22.9 13 Este 26 Este 0 -- -- 67
2020-10-15 14:00:00 23.4 9 Este 18 Este 0 -- -- 65
2020-10-15 13:00:00 22.7 10 Nordeste 18 Este 0 -- -- 68
2020-10-15 12:00:00 22.5 9 Este 19 Este 0 -- -- 67
2020-10-15 11:00:00 21.9 6 Este 19 Noroeste 0 -- -- 69
2020-10-15 10:00:00 20.5 12 Norte 21 Norte 0 -- -- 74
2020-10-15 09:00:00 18.6 8 Noroeste 23 Oeste 0 -- -- 80
2020-10-15 08:00:00 17.8 8 Oeste 16 Oeste 0 -- -- 82
2020-10-15 07:00:00 17.4 12 Oeste 18 Oeste 0 -- -- 80
2020-10-15 06:00:00 17.3 11 Oeste 17 Oeste 0 -- -- 81
2020-10-15 05:00:00 16.8 13 Oeste 17 Oeste 0 -- -- 82
2020-10-15 04:00:00 17.2 9 Oeste 14 Oeste 0 -- -- 82
2020-10-15 03:00:00 17.6 10 Oeste 14 Oeste 0 -- -- 79
2020-10-15 02:00:00 17.8 8 Oeste 13 Oeste 0 -- -- 82
2020-10-15 01:00:00 17.9 5 Oeste 8 Sudoeste 0 -- -- 83
2020-10-15 00:00:00 18.5 2 Oeste 16 Noroeste 0 -- -- 84
2020-10-14 23:00:00 18.8 3 Oeste 17 Noroeste 0 -- -- 79
2020-10-14 22:00:00 19.2 8 Noroeste 21 Noroeste 0 -- -- 79
2020-10-14 21:00:00 19.4 11 Noroeste 18 Noroeste 0 -- -- 82
2020-10-14 20:00:00 20 9 Norte 22 Norte 0 -- -- 76
2020-10-14 19:00:00 21.9 12 Norte 19 Norte 0 -- -- 65
2020-10-14 18:00:00 23 8 Nordeste 18 Norte 0 -- -- 59
2020-10-14 17:00:00 23.8 9 Nordeste 20 Este 0 -- -- 55
2020-10-14 16:00:00 24 12 Este 20 Este 0 -- -- 63
2020-10-14 15:00:00 24.1 12 Este 18 Nordeste 0 -- -- 67
2020-10-14 14:00:00 24.4 10 Este 21 Este 0 -- -- 64
2020-10-14 13:00:00 24.4 9 Este 18 Este 0 -- -- 62
2020-10-14 12:00:00 24.3 10 Este 16 Este 0 -- -- 52
2020-10-14 11:00:00 22.5 8 Este 13 Nordeste 0 -- -- 75
2020-10-14 10:00:00 20.4 3 Este 10 Este 0 -- -- 83
2020-10-14 09:00:00 18.4 3 Sudoeste 7 Sudoeste 0 -- -- 70
2020-10-14 08:00:00 17.5 6 Oeste 12 Oeste 0 -- -- 74
2020-10-14 07:00:00 16.9 4 Oeste 12 Oeste 0 -- -- 68
2020-10-14 06:00:00 17.4 8 Oeste 11 Oeste 0 -- -- 66
2020-10-14 05:00:00 18.7 0 Calma 10 Este 0 -- -- 69
2020-10-14 04:00:00 20.2 5 Este 15 Oeste 0 -- -- 34
2020-10-14 03:00:00 20 8 Oeste 12 Oeste 0 -- -- 38
2020-10-14 02:00:00 20.2 5 Oeste 15 Sudoeste 0 -- -- 34
2020-10-14 01:00:00 20 8 Sudoeste 11 Sudoeste 0 -- -- 40
2020-10-14 00:00:00 20.2 8 Oeste 11 Oeste 0 -- -- 55
2020-10-13 23:00:00 21 4 Oeste 12 Noroeste 0 -- -- 53
2020-10-13 22:00:00 21.6 3 Sudeste 15 Oeste 0 -- -- 55
2020-10-13 21:00:00 21.4 3 Noroeste 13 Noroeste 0 -- -- 68
2020-10-13 20:00:00 21.9 5 Noroeste 13 Este 0 -- -- 74
2020-10-13 19:00:00 24 9 Este 15 Sudeste 0 -- -- 68
2020-10-13 18:00:00 26.3 6 Este 13 Este 0 -- -- 64
2020-10-13 17:00:00 27.5 6 Este 12 Este 0 -- -- 59
2020-10-13 16:00:00 26.5 5 Este 18 Este 0 -- -- 59
2020-10-13 15:00:00 27.4 11 Este 23 Este 0 -- -- 55
2020-10-13 14:00:00 29.1 15 Este 25 Este 0 -- -- 44
2020-10-13 13:00:00 30.9 15 Este 26 Este 0 -- -- 20
2020-10-13 12:00:00 27.5 14 Nordeste 23 Este 0 -- -- 56
2020-10-13 11:00:00 30.9 14 Este 26 Sudeste 0 -- -- 21
2020-10-13 10:00:00 -- -- -- -- -- -- -- -- --
2020-10-13 09:00:00 -- -- -- -- -- -- -- -- --
2020-10-13 08:00:00 25.3 10 Oeste 19 Oeste 0 -- -- 27
2020-10-13 07:00:00 20.3 5 Oeste 10 Oeste 0 -- -- 47
2020-10-13 06:00:00 21.1 4 Oeste 8 Sur 0 -- -- 45
2020-10-13 05:00:00 21.2 5 Oeste 10 Oeste 0 -- -- 41
2020-10-13 04:00:00 22.2 0 Calma 13 Oeste 0 -- -- 40
2020-10-13 03:00:00 23.7 9 Oeste 17 Oeste 0 -- -- 34
2020-10-13 02:00:00 24.5 13 Oeste 19 Oeste 0 -- -- 34
2020-10-13 01:00:00 24 12 Oeste 17 Sudoeste 0 -- -- 37
2020-10-13 00:00:00 -- -- -- -- -- -- -- -- --
2020-10-12 23:00:00 22.8 2 Sudoeste 11 Oeste 0 -- -- 53
2020-10-12 22:00:00 22.6 3 Sudoeste 7 Sudeste 0 -- -- 65
2020-10-12 21:00:00 23.3 0 Calma 5 Este 0 -- -- 70
2020-10-12 20:00:00 24.8 3 Este 6 Este 0 -- -- 66
2020-10-12 19:00:00 27.5 2 Sudeste 9 Este 0 -- -- 58
2020-10-12 18:00:00 29.5 6 Este 15 Este 0 -- -- 51
2020-10-12 17:00:00 32.6 6 Este 15 Este 0 -- -- 23
2020-10-12 16:00:00 32.8 6 Sudeste 17 Sudeste 0 -- -- 23
2020-10-12 15:00:00 32.6 7 Este 20 Sudeste 0 -- -- 23
2020-10-12 14:00:00 32.8 7 Este 21 Sudeste 0 -- -- 22
2020-10-12 13:00:00 32.7 8 Este 20 Sudeste 0 -- -- 23
2020-10-12 12:00:00 32 7 Sudeste 14 Sur 0 -- -- 23
2020-10-12 11:00:00 30.8 3 Noroeste 9 Este 0 -- -- 24
2020-10-12 10:00:00 27.8 2 Este 15 Oeste 0 -- -- 32
2020-10-12 09:00:00 24.5 14 Oeste 17 Oeste 0 -- -- 34
2020-10-12 08:00:00 22.8 11 Oeste 21 Oeste 0 -- -- 34
2020-10-12 07:00:00 19.3 5 Sudoeste 16 Oeste 0 -- -- 49
2020-10-12 06:00:00 19.4 9 Oeste 13 Oeste 0 -- -- 57
2020-10-12 05:00:00 19.6 5 Oeste 15 Oeste 0 -- -- 57
2020-10-12 04:00:00 19.3 11 Oeste 16 Oeste 0 -- -- 69
2020-10-12 03:00:00 -- -- -- -- -- -- -- -- --
2020-10-12 02:00:00 18.5 9 Sudoeste 15 Oeste 0 -- -- 75
2020-10-12 01:00:00 18.6 7 Sudoeste 12 Oeste 0 -- -- 81
2020-10-12 00:00:00 19.5 5 Oeste 22 Noroeste 0 -- -- 81
2020-10-11 23:00:00 20 8 Noroeste 21 Noroeste 0 -- -- 85
2020-10-11 22:00:00 20.2 6 Noroeste 25 Oeste 0 -- -- 83
2020-10-11 21:00:00 20.4 14 Noroeste 25 Noroeste 0 -- -- 83
2020-10-11 20:00:00 -- -- -- -- -- -- -- -- --
2020-10-11 19:00:00 -- -- -- -- -- -- -- -- --
2020-10-11 18:00:00 23.7 17 Noroeste 27 Norte 0 -- -- 70
2020-10-11 17:00:00 25.5 13 Norte 26 Norte 0 -- -- 64
2020-10-11 16:00:00 26 12 Norte 24 Nordeste 0 -- -- 63
2020-10-11 15:00:00 25 11 Nordeste 26 Nordeste 0 -- -- 67
2020-10-11 14:00:00 25.8 10 Nordeste 24 Nordeste 0 -- -- 63
2020-10-11 13:00:00 25.3 17 Norte 27 Norte 0 -- -- 63
2020-10-11 12:00:00 24.3 12 Norte 27 Norte 0 -- -- 66
2020-10-11 11:00:00 22.8 15 Norte 28 Norte 0 -- -- 70
2020-10-11 10:00:00 21.1 16 Noroeste 29 Norte 0 -- -- 78
2020-10-11 09:00:00 19.8 15 Norte 24 Noroeste 0 -- -- 80
2020-10-11 08:00:00 19.4 10 Noroeste 27 Noroeste 0 -- -- 79
2020-10-11 07:00:00 19.5 14 Oeste 31 Noroeste 0 -- -- 79
2020-10-11 06:00:00 19.6 14 Noroeste 28 Noroeste 0 -- -- 81
2020-10-11 05:00:00 19.5 12 Norte 31 Oeste 0 -- -- 80
2020-10-11 04:00:00 19.5 15 Noroeste 30 Noroeste 0 -- -- 79
2020-10-11 03:00:00 19.5 14 Noroeste 31 Noroeste 0 -- -- 80
2020-10-11 02:00:00 19.6 15 Oeste 30 Noroeste 0 -- -- 77
2020-10-11 01:00:00 19.8 11 Noroeste 28 Noroeste 0 -- -- 77
2020-10-11 00:00:00 19.6 17 Noroeste 30 Noroeste 0 -- -- 79
2020-10-10 23:00:00 19.7 13 Noroeste 26 Noroeste 0 -- -- 82
2020-10-10 22:00:00 20.1 12 Noroeste 30 Noroeste 0 -- -- 80
2020-10-10 21:00:00 20.1 14 Noroeste 27 Noroeste 0 -- -- 77
2020-10-10 20:00:00 20.6 15 Noroeste 35 Noroeste 0 -- -- 78
2020-10-10 19:00:00 21 21 Norte 37 Noroeste 0 -- -- 72
2020-10-10 18:00:00 22.7 22 Norte 35 Noroeste 0 -- -- 67
2020-10-10 17:00:00 24.1 18 Norte 32 Noroeste 0 -- -- 63
2020-10-10 16:00:00 24.4 16 Norte 32 Norte 0 -- -- 61
2020-10-10 15:00:00 24.8 20 Norte 31 Norte 0 -- -- 60
2020-10-10 14:00:00 24.4 16 Norte 30 Norte 0 -- -- 64
2020-10-10 13:00:00 24.6 19 Norte 30 Norte 0 -- -- 63
2020-10-10 12:00:00 23.2 17 Noroeste 32 Noroeste 0 -- -- 62
2020-10-10 11:00:00 20.9 17 Noroeste 33 Noroeste 0 -- -- 75
2020-10-10 10:00:00 20.1 13 Noroeste 27 Noroeste 0 -- -- 78
2020-10-10 09:00:00 19.7 11 Noroeste 24 Norte 0 -- -- 81
2020-10-10 08:00:00 19 14 Noroeste 27 Noroeste 0 -- -- 82
2020-10-10 07:00:00 19.2 14 Norte 27 Norte 0 -- -- 83
2020-10-10 06:00:00 19.9 15 Noroeste 29 Oeste 0 -- -- 74
2020-10-10 05:00:00 19.5 17 Noroeste 34 Noroeste 0 -- -- 82
2020-10-10 04:00:00 19.7 10 Noroeste 30 Norte 0 -- -- 80
2020-10-10 03:00:00 20 14 Noroeste 31 Noroeste 0 -- -- 81
2020-10-10 02:00:00 20.6 16 Noroeste 32 Noroeste 0 -- -- 76
2020-10-10 01:00:00 20.2 20 Oeste 34 Noroeste 0 -- -- 74
2020-10-10 00:00:00 20 14 Noroeste 35 Noroeste 0 -- -- 80
2020-10-09 23:00:00 20.4 18 Noroeste 33 Noroeste 0 -- -- 81
2020-10-09 22:00:00 20.7 15 Noroeste 36 Noroeste 0 -- -- 79
2020-10-09 21:00:00 20.2 17 Noroeste 33 Norte 0 -- -- 80
2020-10-09 20:00:00 20.7 23 Noroeste 40 Noroeste 0 -- -- 83
2020-10-09 19:00:00 22 21 Norte 32 Norte 0 -- -- 76
2020-10-09 18:00:00 24 16 Norte 35 Noroeste 0 -- -- 68
2020-10-09 17:00:00 25 17 Norte 33 Noroeste 0 -- -- 65
2020-10-09 16:00:00 25.5 16 Norte 31 Norte 0 -- -- 64
2020-10-09 15:00:00 24.6 18 Norte 33 Noroeste 0 -- -- 67
2020-10-09 14:00:00 23.4 17 Noroeste 29 Norte 0 -- -- 71
2020-10-09 13:00:00 21.6 10 Noroeste 26 Noroeste 0 -- -- 79
2020-10-09 12:00:00 21.8 13 Noroeste 27 Noroeste 0 -- -- 77
2020-10-09 11:00:00 21.1 12 Noroeste 27 Noroeste 0 -- -- 81
2020-10-09 10:00:00 21.1 9 Noroeste 26 Noroeste 0 -- -- 78
2020-10-09 09:00:00 20.6 14 Noroeste 28 Noroeste 0 -- -- 82
2020-10-09 08:00:00 20.4 11 Noroeste 32 Noroeste 0 -- -- 81
2020-10-09 07:00:00 20.2 12 Noroeste 33 Noroeste 0 -- -- 82
2020-10-09 06:00:00 20.2 16 Noroeste 29 Noroeste 0 -- -- 82
2020-10-09 05:00:00 20.3 17 Noroeste 31 Noroeste 0 -- -- 84
2020-10-09 04:00:00 20.1 18 Noroeste 39 Norte 0 -- -- 84
2020-10-09 03:00:00 20.2 27 Noroeste 41 Noroeste 0 -- -- 84
2020-10-09 02:00:00 20.8 10 Norte 19 Norte 0 -- -- 72
2020-10-09 01:00:00 20.9 14 Norte 22 Norte 0 -- -- 72
2020-10-09 00:00:00 22.9 9 Norte 18 Noroeste 0 -- -- 62
2020-10-08 23:00:00 21.5 3 Oeste 8 Noroeste 0 -- -- 70
2020-10-08 22:00:00 22.4 5 Norte 10 Noroeste 0 -- -- 62
2020-10-08 21:00:00 22.6 2 Oeste 7 Norte 0 -- -- 73
2020-10-08 20:00:00 24.8 6 Norte 14 Noroeste 0 -- -- 57
2020-10-08 19:00:00 26.6 10 Norte 17 Norte 0 -- -- 47
2020-10-08 18:00:00 26.9 6 Nordeste 15 Nordeste 0 -- -- 56
2020-10-08 17:00:00 26.5 9 Este 19 Nordeste 0 -- -- 62
2020-10-08 16:00:00 26.6 12 Este 19 Este 0 -- -- 56
2020-10-08 15:00:00 27.2 12 Este 22 Sudeste 0 -- -- 43
2020-10-08 14:00:00 26.9 13 Este 21 Este 0 -- -- 44
2020-10-08 13:00:00 26.8 10 Nordeste 20 Este 0 -- -- 46
2020-10-08 12:00:00 26.2 12 Este 21 Este 0 -- -- 58
2020-10-08 11:00:00 26.3 7 Norte 17 Norte 0 -- -- 40
2020-10-08 10:00:00 24 5 Sudeste 9 Este 0 -- -- 56
2020-10-08 09:00:00 20.8 5 Oeste 13 Oeste 0 -- -- 54
2020-10-08 08:00:00 19.4 8 Oeste 16 Oeste 0 -- -- 62
2020-10-08 07:00:00 19.1 9 Sudoeste 15 Sudoeste 0 -- -- 63
2020-10-08 06:00:00 18.6 8 Sudoeste 12 Oeste 0 -- -- 70
2020-10-08 05:00:00 18.4 8 Sudoeste 11 Sudoeste 0 -- -- 77
2020-10-08 04:00:00 18.4 5 Sudoeste 9 Sudoeste 0 -- -- 88
2020-10-08 03:00:00 18.5 2 Sudoeste 6 Sudoeste 0 -- -- 91
2020-10-08 02:00:00 18.7 0 Calma 3 Oeste 0 -- -- 91
2020-10-08 01:00:00 19.2 0 Calma 3 Sudoeste 0 -- -- 91
2020-10-08 00:00:00 19.7 0 Calma 5 Sudeste 0 -- -- 90
2020-10-07 23:00:00 20 0 Calma 4 Oeste 0 -- -- 89
2020-10-07 22:00:00 20.5 2 Sudeste 6 Sudeste 0 -- -- 89
2020-10-07 21:00:00 20.8 4 Sudeste 8 Este 0 -- -- 88
2020-10-07 20:00:00 21.5 4 Sudeste 9 Este 0 -- -- 86
2020-10-07 19:00:00 22.5 6 Este 12 Este 0 -- -- 82
2020-10-07 18:00:00 24.2 6 Este 15 Nordeste 0 -- -- 74
2020-10-07 17:00:00 24.6 8 Este 18 Este 0 -- -- 72
2020-10-07 16:00:00 24.9 8 Este 17 Este 0 -- -- 70
2020-10-07 15:00:00 25 9 Este 18 Este 0 -- -- 71
2020-10-07 14:00:00 24.6 10 Este 19 Este 0 -- -- 72
2020-10-07 13:00:00 23.9 8 Este 20 Este 0 -- -- 74
2020-10-07 12:00:00 24.1 9 Este 19 Este 0 -- -- 72
2020-10-07 11:00:00 23.2 10 Este 13 Este 0 -- -- 74
2020-10-07 10:00:00 21.5 5 Noroeste 8 Norte 0 -- -- 79
2020-10-07 09:00:00 19.3 4 Sudeste 11 Sudoeste 0 -- -- 63
2020-10-07 08:00:00 17.5 8 Sudoeste 14 Oeste 0 -- -- 67
2020-10-07 07:00:00 17.4 10 Oeste 15 Oeste 0 -- -- 79
2020-10-07 06:00:00 17.2 9 Oeste 12 Oeste 0 -- -- 91
2020-10-07 05:00:00 17.6 6 Oeste 10 Oeste 0 -- -- 93
2020-10-07 04:00:00 17.8 5 Sudoeste 8 Oeste 0 -- -- 91
2020-10-07 03:00:00 18.5 3 Oeste 9 Oeste 0 -- -- 90
2020-10-07 02:00:00 18.9 0 Calma 10 Noroeste 0 -- -- 89
2020-10-07 01:00:00 19 4 Noroeste 15 Norte 0 -- -- 89
2020-10-07 00:00:00 19 4 Noroeste 14 Noroeste 0 -- -- 88
2020-10-06 23:00:00 19.2 8 Noroeste 21 Noroeste 0 -- -- 87
2020-10-06 22:00:00 19.3 9 Norte 18 Noroeste 0 -- -- 87
2020-10-06 21:00:00 19.6 8 Noroeste 19 Norte 0 -- -- 86
2020-10-06 20:00:00 19.9 8 Norte 16 Norte 0 -- -- 84
2020-10-06 19:00:00 20.5 12 Norte 22 Norte 0 -- -- 81
2020-10-06 18:00:00 20.7 12 Norte 21 Norte 0 -- -- 81
2020-10-06 17:00:00 20.7 11 Norte 17 Norte 0 -- -- 83
2020-10-06 16:00:00 21 7 Norte 16 Nordeste 0 -- -- 82
2020-10-06 15:00:00 20.3 8 Nordeste 17 Nordeste 0.2 -- -- 83
2020-10-06 14:00:00 20.6 11 Nordeste 24 Este 0 -- -- 81
2020-10-06 13:00:00 20.8 9 Norte 16 Norte 0 -- -- 81
2020-10-06 12:00:00 19.9 7 Norte 17 Noroeste 0 -- -- 83
2020-10-06 11:00:00 19.3 10 Norte 17 Noroeste 0 -- -- 85
2020-10-06 10:00:00 19 10 Noroeste 19 Noroeste 0 -- -- 85
2020-10-06 09:00:00 18.6 9 Noroeste 15 Oeste 0 -- -- 86
2020-10-06 08:00:00 18.4 8 Noroeste 15 Noroeste 0 -- -- 88
2020-10-06 07:00:00 18.4 5 Noroeste 10 Oeste 0.2 -- -- 91
2020-10-06 06:00:00 18.6 4 Norte 14 Nordeste 0 -- -- 89
2020-10-06 05:00:00 18.8 8 Norte 16 Norte 0 -- -- 88
2020-10-06 04:00:00 18.8 6 Norte 18 Noroeste 0.2 -- -- 89
2020-10-06 03:00:00 18.8 6 Norte 13 Norte 0 -- -- 91
2020-10-06 02:00:00 19.1 6 Noroeste 12 Este 0 -- -- 90
2020-10-06 01:00:00 19.4 5 Nordeste 13 Nordeste 0 -- -- 90
2020-10-06 00:00:00 19.6 5 Nordeste 14 Norte 0 -- -- 88
2020-10-05 23:00:00 19.7 5 Norte 15 Noroeste 0 -- -- 87
2020-10-05 22:00:00 19.7 6 Norte 15 Norte 0 -- -- 85
2020-10-05 21:00:00 19.4 6 Noroeste 13 Noroeste 0 -- -- 83
2020-10-05 20:00:00 19.4 8 Norte 14 Norte 0 -- -- 81
2020-10-05 19:00:00 20.2 8 Norte 17 Este 0 -- -- 77
2020-10-05 18:00:00 21.3 10 Nordeste 21 Nordeste 0 -- -- 67
2020-10-05 17:00:00 21.5 12 Norte 28 Nordeste 0 -- -- 65
2020-10-05 16:00:00 21.4 13 Norte 26 Nordeste 0 -- -- 68
2020-10-05 15:00:00 21.9 10 Nordeste 31 Nordeste 0 -- -- 68
2020-10-05 14:00:00 22 13 Nordeste 27 Este 0 -- -- 68
2020-10-05 13:00:00 22.7 13 Nordeste 26 Este 0 -- -- 66
2020-10-05 12:00:00 21.1 9 Norte 23 Este 0 -- -- 78
2020-10-05 11:00:00 21 9 Nordeste 21 Este 0 -- -- 80
2020-10-05 10:00:00 19.5 8 Norte 14 Noroeste 0 -- -- 85
2020-10-05 09:00:00 19.4 8 Norte 18 Oeste 0 -- -- 80
2020-10-05 08:00:00 18.9 8 Noroeste 17 Oeste 0 -- -- 82
2020-10-05 07:00:00 18.7 5 Noroeste 14 Oeste 0 -- -- 85
2020-10-05 06:00:00 18.7 6 Oeste 18 Oeste 0 -- -- 83
2020-10-05 05:00:00 18.9 12 Norte 23 Nordeste 0 -- -- 81
2020-10-05 04:00:00 19.1 9 Noroeste 21 Noroeste 0 -- -- 77
2020-10-05 03:00:00 19.1 4 Noroeste 17 Noroeste 0 -- -- 77
2020-10-05 02:00:00 19.1 10 Noroeste 22 Oeste 0 -- -- 79
2020-10-05 01:00:00 19.6 11 Noroeste 24 Noroeste 0 -- -- 75
2020-10-05 00:00:00 19.6 17 Oeste 26 Oeste 0 -- -- 74
2020-10-04 23:00:00 18.7 10 Noroeste 29 Noroeste 0 -- -- 82
2020-10-04 22:00:00 19.2 13 Oeste 23 Noroeste 0 -- -- 78
2020-10-04 21:00:00 19.3 14 Noroeste 36 Oeste 0 -- -- 78
2020-10-04 20:00:00 19.3 16 Noroeste 36 Noroeste 0 -- -- 78
2020-10-04 19:00:00 20.1 22 Noroeste 39 Noroeste 0 -- -- 75
2020-10-04 18:00:00 20.8 15 Noroeste 34 Noroeste 0 -- -- 73
2020-10-04 17:00:00 21.1 22 Noroeste 36 Noroeste 0 -- -- 75
2020-10-04 16:00:00 22.1 19 Norte 34 Noroeste 0 -- -- 73
2020-10-04 15:00:00 21.6 16 Noroeste 30 Noroeste 0 -- -- 80
2020-10-04 14:00:00 19.7 8 Norte 28 Nordeste 0.2 -- -- 92
2020-10-04 13:00:00 18.9 12 Norte 28 Noroeste 0.6 -- -- 92
2020-10-04 12:00:00 19.4 12 Norte 25 Norte 1.2 -- -- 94
2020-10-04 11:00:00 19.2 10 Nordeste 27 Oeste 3.4 -- -- 93
2020-10-04 10:00:00 19.4 13 Noroeste 25 Noroeste 0 -- -- 85
2020-10-04 09:00:00 19.8 9 Noroeste 27 Noroeste 0 -- -- 83
2020-10-04 08:00:00 19.3 13 Noroeste 29 Oeste 0.4 -- -- 88
2020-10-04 07:00:00 19.2 13 Noroeste 27 Noroeste 0.8 -- -- 91
2020-10-04 06:00:00 20.6 15 Noroeste 33 Oeste 0 -- -- 81
2020-10-04 05:00:00 20.4 18 Noroeste 33 Noroeste 0 -- -- 81
2020-10-04 04:00:00 19.5 13 Noroeste 34 Oeste 0.2 -- -- 86
2020-10-04 03:00:00 19.3 15 Noroeste 37 Noroeste 0 -- -- 86
2020-10-04 02:00:00 20.2 17 Noroeste 36 Oeste 0 -- -- 80
2020-10-04 01:00:00 20.3 17 Noroeste 34 Noroeste 0 -- -- 74
2020-10-04 00:00:00 19.2 11 Noroeste 26 Noroeste 0 -- -- 84
2020-10-03 23:00:00 18.9 13 Noroeste 23 Noroeste 0.4 -- -- 85
2020-10-03 22:00:00 19.6 13 Noroeste 27 Noroeste 0 -- -- 85
2020-10-03 21:00:00 19.7 13 Noroeste 27 Noroeste 0 -- -- 85
2020-10-03 20:00:00 19.8 14 Oeste 32 Oeste 0.2 -- -- 81
2020-10-03 19:00:00 20.6 14 Noroeste 30 Noroeste 0 -- -- 82
2020-10-03 18:00:00 20.8 15 Noroeste 35 Noroeste 0 -- -- 82
2020-10-03 17:00:00 20.6 19 Noroeste 37 Noroeste 0.4 -- -- 82
2020-10-03 16:00:00 22.6 20 Noroeste 37 Noroeste 0 -- -- 74
2020-10-03 15:00:00 23.3 16 Norte 39 Noroeste 0 -- -- 70
2020-10-03 14:00:00 22.2 20 Noroeste 40 Noroeste 0 -- -- 77
2020-10-03 13:00:00 21.4 21 Noroeste 36 Noroeste 0 -- -- 79
2020-10-03 12:00:00 21.5 19 Noroeste 42 Noroeste 0.6 -- -- 77
2020-10-03 11:00:00 19.7 17 Noroeste 40 Oeste 0 -- -- 84
2020-10-03 10:00:00 20.4 18 Oeste 38 Oeste 0 -- -- 73
2020-10-03 09:00:00 18.2 13 Noroeste 40 Noroeste 0.2 -- -- 87
2020-10-03 08:00:00 20 16 Noroeste 38 Oeste 0 -- -- 69
2020-10-03 07:00:00 19.8 18 Noroeste 35 Oeste 0 -- -- 73
2020-10-03 06:00:00 19.6 18 Noroeste 39 Noroeste 0 -- -- 71
2020-10-03 05:00:00 19.6 17 Noroeste 33 Oeste 0 -- -- 77
2020-10-03 04:00:00 19.7 18 Noroeste 34 Noroeste 0 -- -- 78
2020-10-03 03:00:00 19.9 18 Oeste 39 Oeste 0 -- -- 70
2020-10-03 02:00:00 19.6 16 Oeste 37 Oeste 0 -- -- 73
2020-10-03 01:00:00 19.3 21 Noroeste 40 Noroeste 0 -- -- 80
2020-10-03 00:00:00 19.6 21 Noroeste 41 Noroeste 0 -- -- 76
2020-10-02 23:00:00 19.6 19 Noroeste 37 Noroeste 0 -- -- 83
2020-10-02 22:00:00 19.7 16 Noroeste 41 Noroeste 0 -- -- 83
2020-10-02 21:00:00 19.7 18 Noroeste 33 Noroeste 0 -- -- 83
2020-10-02 20:00:00 19 23 Noroeste 49 Norte 0.2 -- -- 87
2020-10-02 19:00:00 19.5 20 Noroeste 40 Noroeste 0.2 -- -- 82
2020-10-02 18:00:00 20.5 21 Noroeste 48 Oeste 0 -- -- 75
2020-10-02 17:00:00 20.1 15 Noroeste 42 Noroeste 0 -- -- 81
2020-10-02 16:00:00 23.3 19 Noroeste 40 Noroeste 0 -- -- 65
2020-10-02 15:00:00 24.3 17 Noroeste 43 Noroeste 0 -- -- 54
2020-10-02 14:00:00 23.7 14 Noroeste 39 Norte 0 -- -- 58
2020-10-02 13:00:00 22.3 19 Noroeste 39 Noroeste 0 -- -- 61
2020-10-02 12:00:00 22 15 Noroeste 36 Noroeste 0 -- -- 61
2020-10-02 11:00:00 20.7 15 Noroeste 40 Noroeste 0 -- -- 62
2020-10-02 10:00:00 19.8 21 Noroeste 33 Noroeste 0 -- -- 66
2020-10-02 09:00:00 19.2 19 Noroeste 34 Noroeste 0 -- -- 74
2020-10-02 08:00:00 19.2 21 Oeste 32 Oeste 0 -- -- 70
2020-10-02 07:00:00 18.5 14 Noroeste 27 Oeste 0 -- -- 78
2020-10-02 06:00:00 17.9 17 Noroeste 35 Oeste 0 -- -- 86
2020-10-02 05:00:00 18.7 18 Noroeste 37 Noroeste 0 -- -- 80
2020-10-02 04:00:00 18.8 21 Noroeste 35 Noroeste 0 -- -- 83
2020-10-02 03:00:00 19.2 18 Noroeste 34 Noroeste 0 -- -- 78
2020-10-02 02:00:00 19.9 14 Noroeste 31 Noroeste 0 -- -- 71
2020-10-02 01:00:00 19.9 18 Noroeste 32 Noroeste 0 -- -- 69
2020-10-02 00:00:00 19.8 17 Noroeste 34 Noroeste 0 -- -- 80
2020-10-01 23:00:00 20 17 Noroeste 36 Noroeste 0 -- -- 77
2020-10-01 22:00:00 20.2 17 Noroeste 37 Noroeste 0 -- -- 71
2020-10-01 21:00:00 20.3 17 Noroeste 37 Noroeste 0 -- -- 70
2020-10-01 20:00:00 20.5 18 Noroeste 34 Noroeste 0 -- -- 71
2020-10-01 19:00:00 20.9 22 Noroeste 36 Noroeste 0 -- -- 70
2020-10-01 18:00:00 21.7 18 Noroeste 37 Noroeste 0 -- -- 64
2020-10-01 17:00:00 22.1 18 Norte 36 Noroeste 0 -- -- 65
2020-10-01 16:00:00 24.4 17 Norte 42 Norte 0 -- -- 54
2020-10-01 15:00:00 23.9 19 Norte 40 Norte 0 -- -- 56
2020-10-01 14:00:00 24.2 18 Norte 35 Norte 0 -- -- 54
2020-10-01 13:00:00 23.3 19 Noroeste 35 Noroeste 0 -- -- 56
2020-10-01 12:00:00 21.7 13 Noroeste 24 Noroeste 0 -- -- 65
2020-10-01 11:00:00 20.2 10 Noroeste 26 Noroeste 0 -- -- 76
2020-10-01 10:00:00 19.9 17 Noroeste 31 Noroeste 0 -- -- 75
2020-10-01 09:00:00 19.8 11 Noroeste 30 Noroeste 0 -- -- 78
2020-10-01 08:00:00 19.8 13 Noroeste 24 Oeste 0 -- -- 70
2020-10-01 07:00:00 19.5 17 Noroeste 28 Noroeste 0 -- -- 77
2020-10-01 06:00:00 19.7 13 Noroeste 24 Noroeste 0 -- -- 72
2020-10-01 05:00:00 19.4 9 Noroeste 22 Noroeste 0 -- -- 70
2020-10-01 04:00:00 19.3 12 Oeste 26 Oeste 0 -- -- 70
2020-10-01 03:00:00 19.6 12 Noroeste 30 Oeste 0 -- -- 71
2020-10-01 02:00:00 19.8 17 Oeste 29 Oeste 0 -- -- 69
2020-10-01 01:00:00 19.9 15 Noroeste 29 Noroeste 0 -- -- 71
2020-10-01 00:00:00 19.7 15 Oeste 35 Noroeste 0 -- -- 70
2020-09-30 23:00:00 19.8 14 Oeste 32 Oeste 0 -- -- 70
2020-09-30 22:00:00 20 18 Oeste 38 Oeste 0 -- -- 69
2020-09-30 21:00:00 20 12 Noroeste 29 Noroeste 0 -- -- 65
2020-09-30 20:00:00 20.2 15 Noroeste 33 Noroeste 0 -- -- 73
2020-09-30 19:00:00 20.9 17 Norte 30 Norte 0 -- -- 72
2020-09-30 18:00:00 21.1 17 Norte 31 Norte 0 -- -- 69
2020-09-30 17:00:00 21.9 17 Norte 33 Noroeste 0 -- -- 68
2020-09-30 16:00:00 23.4 20 Noroeste 32 Noroeste 0 -- -- 61
2020-09-30 15:00:00 23.5 19 Nordeste 39 Nordeste 0 -- -- 61
2020-09-30 14:00:00 24 15 Nordeste 35 Nordeste 0 -- -- 61
2020-09-30 13:00:00 23.9 14 Nordeste 29 Norte 0 -- -- 62
2020-09-30 12:00:00 23.6 16 Norte 29 Norte 0 -- -- 56
2020-09-30 11:00:00 22.2 16 Noroeste 28 Noroeste 0 -- -- 61
2020-09-30 10:00:00 20.7 16 Noroeste 30 Noroeste 0 -- -- 67
2020-09-30 09:00:00 20.2 14 Noroeste 25 Noroeste 0 -- -- 71
2020-09-30 08:00:00 18.8 10 Oeste 23 Noroeste 0 -- -- 74
2020-09-30 07:00:00 19 11 Noroeste 25 Noroeste 0 -- -- 78
2020-09-30 06:00:00 19.3 13 Noroeste 21 Noroeste 0 -- -- 76
2020-09-30 05:00:00 19.1 11 Noroeste 22 Noroeste 0 -- -- 75
2020-09-30 04:00:00 19 9 Noroeste 15 Noroeste 0 -- -- 76
2020-09-30 03:00:00 18.8 6 Noroeste 19 Noroeste 0 -- -- 76
2020-09-30 02:00:00 19.3 12 Noroeste 23 Noroeste 0 -- -- 76
2020-09-30 01:00:00 19.2 9 Noroeste 24 Noroeste 0 -- -- 73
2020-09-30 00:00:00 19.7 14 Noroeste 23 Noroeste 0 -- -- 76